createdAt,value
2022-09-11T00:00:39.661Z,100.00
2022-09-11T00:03:06.026Z,100.00
2022-09-11T00:05:32.406Z,100.00
2022-09-11T00:07:58.762Z,100.00
2022-09-11T00:10:25.144Z,100.00
2022-09-11T00:12:51.450Z,100.00
2022-09-11T00:15:17.906Z,100.00
2022-09-11T00:17:44.221Z,100.00
2022-09-11T00:20:10.689Z,100.00
2022-09-11T00:22:37.141Z,100.00
2022-09-11T00:25:03.566Z,100.00
2022-09-11T00:27:29.888Z,100.00
2022-09-11T00:29:57.738Z,100.00
2022-09-11T00:32:24.349Z,100.00
2022-09-11T00:34:50.828Z,100.00
2022-09-11T00:37:17.169Z,100.00
2022-09-11T00:39:43.547Z,100.00
2022-09-11T00:42:10.118Z,100.00
2022-09-11T00:44:37.777Z,100.00
2022-09-11T00:47:09.582Z,100.00
2022-09-11T00:49:40.215Z,100.00
2022-09-11T00:52:13.424Z,100.00
2022-09-11T00:54:52.563Z,100.00
2022-09-11T00:57:23.919Z,100.00
2022-09-11T00:59:52.794Z,100.00
2022-09-11T01:02:26.728Z,100.00
2022-09-11T01:04:55.667Z,100.00
2022-09-11T01:07:24.059Z,100.00
2022-09-11T01:09:51.147Z,100.00
2022-09-11T01:12:26.614Z,100.00
2022-09-11T01:15:08.002Z,100.00
2022-09-11T01:17:37.197Z,100.00
2022-09-11T01:20:19.306Z,100.00
2022-09-11T01:23:19.492Z,100.00
2022-09-11T01:26:01.243Z,100.00
2022-09-11T01:28:54.616Z,100.00
2022-09-11T01:31:25.488Z,100.00
2022-09-11T01:34:04.774Z,100.00
2022-09-11T01:36:44.353Z,100.00
2022-09-11T01:39:13.588Z,100.00
2022-09-11T01:41:50.980Z,100.00
2022-09-11T01:44:40.569Z,100.00
2022-09-11T01:47:11.751Z,100.00
2022-09-11T01:49:45.266Z,100.00
2022-09-11T01:52:24.243Z,100.00
2022-09-11T01:54:56.029Z,100.00
2022-09-11T01:57:56.234Z,100.00
2022-09-11T02:00:23.309Z,100.00
2022-09-11T02:03:06.076Z,100.00
2022-09-11T02:06:04.228Z,100.00
2022-09-11T02:08:50.054Z,100.00
2022-09-11T02:11:20.596Z,100.00
2022-09-11T02:14:04.018Z,100.00
2022-09-11T02:16:56.022Z,100.00
2022-09-11T02:19:28.492Z,100.00
2022-09-11T02:21:57.068Z,100.00
2022-09-11T02:24:23.674Z,100.00
2022-09-11T02:26:54.892Z,100.00
2022-09-11T02:29:21.506Z,100.00
2022-09-11T02:31:48.881Z,100.00
2022-09-11T02:34:17.801Z,100.00
2022-09-11T02:37:01.188Z,100.00
2022-09-11T02:39:34.380Z,100.00
2022-09-11T02:42:27.580Z,100.00
2022-09-11T02:45:23.742Z,100.00
2022-09-11T02:48:14.679Z,100.00
2022-09-11T02:50:48.842Z,100.00
2022-09-11T02:53:28.986Z,100.00
2022-09-11T02:56:26.221Z,100.00
2022-09-11T02:59:01.341Z,100.00
2022-09-11T03:01:29.616Z,100.00
2022-09-11T03:03:57.319Z,100.00
2022-09-11T03:06:27.288Z,100.00
2022-09-11T03:08:53.782Z,100.00
2022-09-11T03:11:20.850Z,100.00
2022-09-11T03:13:49.278Z,100.00
2022-09-11T03:16:16.757Z,100.00
2022-09-11T03:18:43.874Z,100.00
2022-09-11T03:21:11.310Z,100.00
2022-09-11T03:23:38.174Z,100.00
2022-09-11T03:26:04.576Z,100.00
2022-09-11T03:28:32.019Z,100.00
2022-09-11T03:30:59.172Z,100.00
2022-09-11T03:33:26.176Z,100.00
2022-09-11T03:35:52.537Z,100.00
2022-09-11T03:38:20.002Z,100.00
2022-09-11T03:40:46.838Z,100.00
2022-09-11T03:43:13.318Z,100.00
2022-09-11T03:45:39.867Z,100.00
2022-09-11T03:48:08.469Z,100.00
2022-09-11T03:50:34.841Z,100.00
2022-09-11T03:53:01.418Z,100.00
2022-09-11T03:55:28.588Z,100.00
2022-09-11T03:57:55.210Z,100.00
2022-09-11T04:00:24.000Z,100.00
2022-09-11T04:02:57.762Z,100.00
2022-09-11T04:05:34.374Z,100.00
2022-09-11T04:08:02.152Z,100.00
2022-09-11T04:10:28.822Z,100.00
2022-09-11T04:12:57.145Z,100.00
2022-09-11T04:15:23.568Z,100.00
2022-09-11T04:17:49.941Z,100.00
2022-09-11T04:20:16.784Z,100.00
2022-09-11T04:22:45.646Z,100.00
2022-09-11T04:25:12.985Z,100.00
2022-09-11T04:27:40.274Z,100.00
2022-09-11T04:30:10.548Z,100.00
2022-09-11T04:32:37.022Z,100.00
2022-09-11T04:35:03.848Z,100.00
2022-09-11T04:37:35.803Z,100.00
2022-09-11T04:40:03.142Z,100.00
2022-09-11T04:42:30.981Z,100.00
2022-09-11T04:44:57.933Z,100.00
2022-09-11T04:47:24.317Z,100.00
2022-09-11T04:49:50.656Z,100.00
2022-09-11T04:52:17.099Z,100.00
2022-09-11T04:54:43.526Z,100.00
2022-09-11T04:57:10.302Z,100.00
2022-09-11T04:59:38.910Z,100.00
2022-09-11T05:02:08.705Z,100.00
2022-09-11T05:04:39.088Z,100.00
2022-09-11T05:07:05.742Z,100.00
2022-09-11T05:09:32.096Z,100.00
2022-09-11T05:11:58.928Z,100.00
2022-09-11T05:14:30.074Z,100.00
2022-09-11T05:16:56.786Z,100.00
2022-09-11T05:19:25.518Z,100.00
2022-09-11T05:21:51.920Z,100.00
2022-09-11T05:24:18.396Z,100.00
2022-09-11T05:26:44.803Z,100.00
2022-09-11T05:29:14.801Z,100.00
2022-09-11T05:31:53.120Z,100.00
2022-09-11T05:34:21.118Z,100.00
2022-09-11T05:36:49.005Z,100.00
2022-09-11T05:39:16.614Z,100.00
2022-09-11T05:41:43.094Z,100.00
2022-09-11T05:44:09.562Z,100.00
2022-09-11T05:46:37.484Z,100.00
2022-09-11T05:49:03.923Z,100.00
2022-09-11T05:51:30.404Z,100.00
2022-09-11T05:53:58.565Z,100.00
2022-09-11T05:56:26.210Z,100.00
2022-09-11T05:58:57.932Z,100.00
2022-09-11T06:01:31.152Z,100.00
2022-09-11T06:04:12.206Z,100.00
2022-09-11T06:06:40.760Z,100.00
2022-09-11T06:09:07.567Z,100.00
2022-09-11T06:11:34.290Z,100.00
2022-09-11T06:14:01.890Z,100.00
2022-09-11T06:16:31.693Z,100.00
2022-09-11T06:19:05.811Z,100.00
2022-09-11T06:21:32.248Z,100.00
2022-09-11T06:24:05.611Z,100.00
2022-09-11T06:26:32.748Z,100.00
2022-09-11T06:29:00.157Z,100.00
2022-09-11T06:31:27.513Z,100.00
2022-09-11T06:33:54.923Z,100.00
2022-09-11T06:36:24.278Z,100.00
2022-09-11T06:38:55.565Z,100.00
2022-09-11T06:41:24.687Z,100.00
2022-09-11T06:43:53.913Z,100.00
2022-09-11T06:46:22.960Z,100.00
2022-09-11T06:48:50.644Z,100.00
2022-09-11T06:51:23.914Z,100.00
2022-09-11T06:53:57.752Z,100.00
2022-09-11T06:56:26.864Z,100.00
2022-09-11T06:58:54.031Z,100.00
2022-09-11T07:01:24.450Z,100.00
2022-09-11T07:03:56.134Z,100.00
2022-09-11T07:06:26.293Z,100.00
2022-09-11T07:09:02.719Z,100.00
2022-09-11T07:11:44.889Z,100.00
2022-09-11T07:14:11.410Z,100.00
2022-09-11T07:16:40.578Z,100.00
2022-09-11T07:19:10.431Z,100.00
2022-09-11T07:21:38.524Z,100.00
2022-09-11T07:24:06.068Z,100.00
2022-09-11T07:26:39.482Z,100.00
2022-09-11T07:29:14.457Z,100.00
2022-09-11T07:31:42.653Z,100.00
2022-09-11T07:34:10.816Z,100.00
2022-09-11T07:36:37.542Z,100.00
2022-09-11T07:39:07.309Z,100.00
2022-09-11T07:41:38.685Z,100.00
2022-09-11T07:44:12.908Z,100.00
2022-09-11T07:46:41.356Z,100.00
2022-09-11T07:49:10.119Z,100.00
2022-09-11T07:51:37.750Z,100.00
2022-09-11T07:54:06.148Z,100.00
2022-09-11T07:56:34.783Z,100.00
2022-09-11T07:59:08.193Z,100.00
2022-09-11T08:01:36.570Z,100.00
2022-09-11T08:04:06.991Z,100.00
2022-09-11T08:06:36.696Z,100.00
2022-09-11T08:09:08.617Z,100.00
2022-09-11T08:11:45.828Z,100.00
2022-09-11T08:14:13.658Z,100.00
2022-09-11T08:16:41.537Z,100.00
2022-09-11T08:19:14.545Z,100.00
2022-09-11T08:21:41.266Z,100.00
2022-09-11T08:24:07.996Z,100.00
2022-09-11T08:26:36.165Z,100.00
2022-09-11T08:29:02.644Z,100.00
2022-09-11T08:31:32.629Z,100.00
2022-09-11T08:33:59.408Z,100.00
2022-09-11T08:36:28.542Z,100.00
2022-09-11T08:38:56.331Z,100.00
2022-09-11T08:41:43.676Z,100.00
2022-09-11T08:44:10.115Z,100.00
2022-09-11T08:46:42.281Z,100.00
2022-09-11T08:49:39.591Z,100.00
2022-09-11T08:52:06.482Z,100.00
2022-09-11T08:54:38.126Z,100.00
2022-09-11T08:57:20.540Z,100.00
2022-09-11T09:00:14.541Z,100.00
2022-09-11T09:02:57.772Z,100.00
2022-09-11T09:05:44.260Z,100.00
2022-09-11T09:08:45.157Z,100.00
2022-09-11T09:11:14.645Z,100.00
2022-09-11T09:13:42.685Z,100.00
2022-09-11T09:16:21.281Z,100.00
2022-09-11T09:18:55.536Z,100.00
2022-09-11T09:21:49.495Z,100.00
2022-09-11T09:24:19.282Z,100.00
2022-09-11T09:26:54.111Z,100.00
2022-09-11T09:29:23.421Z,100.00
2022-09-11T09:32:13.735Z,99.33
2022-09-11T09:34:43.798Z,100.00
2022-09-11T09:37:17.444Z,99.77
2022-09-11T09:39:45.029Z,99.03
2022-09-11T09:42:24.094Z,99.14
2022-09-11T09:45:09.926Z,100.00
2022-09-11T09:47:43.724Z,99.71
2022-09-11T09:50:32.117Z,100.00
2022-09-11T09:53:29.665Z,100.00
2022-09-11T09:55:58.034Z,100.00
2022-09-11T09:58:30.338Z,99.35
2022-09-11T10:00:56.678Z,98.76
2022-09-11T10:03:24.865Z,99.13
2022-09-11T10:05:54.524Z,100.00
2022-09-11T10:08:31.327Z,100.00
2022-09-11T10:11:06.705Z,100.00
2022-09-11T10:13:51.791Z,100.00
2022-09-11T10:16:27.013Z,99.88
2022-09-11T10:18:55.864Z,98.68
2022-09-11T10:21:29.557Z,95.42
2022-09-11T10:24:02.139Z,95.50
2022-09-11T10:26:43.202Z,91.84
2022-09-11T10:29:15.905Z,90.41
2022-09-11T10:31:49.758Z,91.35
2022-09-11T10:34:22.256Z,90.77
2022-09-11T10:37:23.416Z,89.55
2022-09-11T10:39:50.689Z,88.64
2022-09-11T10:42:25.803Z,85.26
2022-09-11T10:44:54.160Z,84.05
2022-09-11T10:47:20.471Z,80.18
2022-09-11T10:49:47.771Z,79.05
2022-09-11T10:52:14.092Z,81.38
2022-09-11T10:55:03.582Z,80.98
2022-09-11T10:57:43.765Z,81.59
2022-09-11T11:00:25.560Z,84.27
2022-09-11T11:03:00.344Z,85.79
2022-09-11T11:05:40.600Z,86.99
2022-09-11T11:08:50.817Z,86.85
2022-09-11T11:11:31.575Z,87.07
2022-09-11T11:14:21.119Z,87.17
2022-09-11T11:16:59.935Z,87.69
2022-09-11T11:20:07.190Z,92.17
2022-09-11T11:22:56.098Z,85.79
2022-09-11T11:25:43.780Z,85.12
2022-09-11T11:28:43.302Z,84.04
2022-09-11T11:31:40.312Z,83.64
2022-09-11T11:34:18.989Z,83.29
2022-09-11T11:36:45.972Z,85.36
2022-09-11T11:39:22.262Z,83.11
2022-09-11T11:42:07.086Z,76.82
2022-09-11T11:45:00.284Z,76.84
2022-09-11T11:47:35.665Z,78.29
2022-09-11T11:50:08.168Z,80.40
2022-09-11T11:53:07.113Z,81.59
2022-09-11T11:55:43.066Z,82.39
2022-09-11T11:58:43.562Z,81.51
2022-09-11T12:01:20.937Z,85.53
2022-09-11T12:03:54.814Z,81.74
2022-09-11T12:06:21.206Z,76.73
2022-09-11T12:08:48.339Z,75.57
2022-09-11T12:11:18.874Z,75.60
2022-09-11T12:13:47.750Z,77.31
2022-09-11T12:16:20.046Z,77.33
2022-09-11T12:19:20.762Z,75.97
2022-09-11T12:21:52.857Z,78.05
2022-09-11T12:24:22.103Z,79.58
2022-09-11T12:27:35.551Z,84.27
2022-09-11T12:30:21.161Z,83.10
2022-09-11T12:32:49.694Z,75.39
2022-09-11T12:35:21.305Z,74.14
2022-09-11T12:37:55.651Z,75.77
2022-09-11T12:40:48.329Z,76.38
2022-09-11T12:43:36.497Z,78.68
2022-09-11T12:46:06.112Z,79.73
2022-09-11T12:48:38.812Z,79.61
2022-09-11T12:51:16.468Z,78.94
2022-09-11T12:53:47.102Z,78.81
2022-09-11T12:56:20.201Z,80.53
2022-09-11T12:58:51.793Z,80.45
2022-09-11T13:01:24.827Z,81.07
2022-09-11T13:04:19.131Z,81.76
2022-09-11T13:06:48.856Z,83.20
2022-09-11T13:09:40.653Z,83.41
2022-09-11T13:12:25.627Z,83.73
2022-09-11T13:14:56.434Z,83.24
2022-09-11T13:17:28.507Z,84.52
2022-09-11T13:20:03.354Z,88.08
2022-09-11T13:22:31.213Z,88.23
2022-09-11T13:25:13.958Z,89.83
2022-09-11T13:27:46.578Z,86.85
2022-09-11T13:30:19.220Z,89.37
2022-09-11T13:32:48.917Z,87.56
2022-09-11T13:35:25.486Z,80.73
2022-09-11T13:38:18.385Z,82.54
2022-09-11T13:40:49.729Z,85.85
2022-09-11T13:43:20.689Z,80.87
2022-09-11T13:45:47.546Z,81.18
2022-09-11T13:48:23.939Z,79.30
2022-09-11T13:50:51.438Z,77.50
2022-09-11T13:53:20.151Z,76.06
2022-09-11T13:55:48.194Z,77.78
2022-09-11T13:58:24.160Z,76.00
2022-09-11T14:00:52.756Z,76.59
2022-09-11T14:03:24.333Z,76.57
2022-09-11T14:05:54.022Z,76.17
2022-09-11T14:08:32.370Z,74.54
2022-09-11T14:11:10.445Z,74.93
2022-09-11T14:13:41.339Z,75.23
2022-09-11T14:16:13.825Z,72.16
2022-09-11T14:18:53.116Z,72.71
2022-09-11T14:21:22.965Z,72.86
2022-09-11T14:23:57.334Z,73.37
2022-09-11T14:26:30.885Z,76.31
2022-09-11T14:29:27.934Z,73.33
2022-09-11T14:32:14.975Z,72.53
2022-09-11T14:34:41.317Z,75.25
2022-09-11T14:37:12.124Z,75.57
2022-09-11T14:40:06.779Z,70.45
2022-09-11T14:42:36.372Z,71.53
2022-09-11T14:45:20.342Z,72.75
2022-09-11T14:47:46.717Z,72.58
2022-09-11T14:50:13.619Z,73.33
2022-09-11T14:52:42.423Z,73.24
2022-09-11T14:55:19.394Z,72.84
2022-09-11T14:57:46.669Z,70.99
2022-09-11T15:00:15.146Z,70.06
2022-09-11T15:02:42.056Z,70.32
2022-09-11T15:05:17.058Z,70.05
2022-09-11T15:07:46.379Z,69.47
2022-09-11T15:10:13.978Z,71.09
2022-09-11T15:12:40.369Z,68.84
2022-09-11T15:15:07.338Z,68.75
2022-09-11T15:17:36.166Z,69.56
2022-09-11T15:20:08.999Z,68.82
2022-09-11T15:22:36.415Z,68.01
2022-09-11T15:25:03.522Z,68.64
2022-09-11T15:27:29.895Z,68.82
2022-09-11T15:29:56.270Z,68.46
2022-09-11T15:32:23.159Z,68.22
2022-09-11T15:34:51.554Z,68.13
2022-09-11T15:37:18.049Z,68.83
2022-09-11T15:39:44.483Z,70.04
2022-09-11T15:42:11.528Z,71.54
2022-09-11T15:44:37.972Z,71.58
2022-09-11T15:47:04.740Z,71.89
2022-09-11T15:49:31.709Z,72.65
2022-09-11T15:51:59.545Z,73.70
2022-09-11T15:54:26.958Z,73.60
2022-09-11T15:56:54.111Z,73.81
2022-09-11T15:59:20.498Z,73.93
2022-09-11T16:01:46.994Z,73.16
2022-09-11T16:04:18.876Z,72.11
2022-09-11T16:06:47.543Z,71.63
2022-09-11T16:09:19.735Z,71.88
2022-09-11T16:11:47.874Z,72.72
2022-09-11T16:14:23.236Z,72.13
2022-09-11T16:16:50.709Z,72.21
2022-09-11T16:19:19.918Z,72.64
2022-09-11T16:21:46.904Z,72.00
2022-09-11T16:24:15.709Z,72.96
2022-09-11T16:26:44.017Z,73.97
2022-09-11T16:29:12.343Z,73.77
2022-09-11T16:31:40.029Z,74.65
2022-09-11T16:34:06.972Z,75.84
2022-09-11T16:36:38.375Z,76.58
2022-09-11T16:39:06.414Z,76.76
2022-09-11T16:41:32.825Z,77.50
2022-09-11T16:44:00.018Z,77.45
2022-09-11T16:46:26.921Z,78.11
2022-09-11T16:48:59.798Z,78.38
2022-09-11T16:51:28.291Z,78.56
2022-09-11T16:53:54.718Z,78.62
2022-09-11T16:56:23.091Z,79.16
2022-09-11T16:58:49.545Z,79.61
2022-09-11T17:01:18.911Z,79.71
2022-09-11T17:03:48.430Z,80.53
2022-09-11T17:06:16.656Z,81.44
2022-09-11T17:08:44.570Z,82.60
2022-09-11T17:11:14.441Z,83.27
2022-09-11T17:13:41.783Z,83.99
2022-09-11T17:16:16.111Z,84.41
2022-09-11T17:18:53.341Z,85.11
2022-09-11T17:21:22.877Z,85.61
2022-09-11T17:23:50.358Z,86.29
2022-09-11T17:26:17.077Z,85.85
2022-09-11T17:28:47.101Z,85.94
2022-09-11T17:31:14.705Z,86.06
2022-09-11T17:33:42.284Z,86.63
2022-09-11T17:36:10.348Z,86.16
2022-09-11T17:38:38.306Z,86.18
2022-09-11T17:41:08.007Z,85.75
2022-09-11T17:43:36.114Z,86.12
2022-09-11T17:46:05.564Z,86.21
2022-09-11T17:48:32.279Z,86.31
2022-09-11T17:51:03.638Z,86.78
2022-09-11T17:53:38.724Z,86.45
2022-09-11T17:56:14.838Z,86.09
2022-09-11T17:58:43.881Z,86.43
2022-09-11T18:01:16.509Z,86.55
2022-09-11T18:03:44.044Z,86.86
2022-09-11T18:06:18.618Z,86.87
2022-09-11T18:08:46.134Z,86.63
2022-09-11T18:11:12.712Z,86.43
2022-09-11T18:13:39.569Z,87.17
2022-09-11T18:16:10.855Z,87.36
2022-09-11T18:18:39.345Z,87.65
2022-09-11T18:21:10.482Z,87.49
2022-09-11T18:23:39.636Z,87.44
2022-09-11T18:26:07.185Z,87.63
2022-09-11T18:28:34.122Z,86.89
2022-09-11T18:31:01.760Z,86.69
2022-09-11T18:33:28.256Z,86.72
2022-09-11T18:35:54.734Z,86.31
2022-09-11T18:38:21.106Z,85.88
2022-09-11T18:40:55.950Z,85.78
2022-09-11T18:43:22.327Z,85.92
2022-09-11T18:45:48.696Z,86.21
2022-09-11T18:48:15.282Z,87.13
2022-09-11T18:50:41.651Z,86.92
2022-09-11T18:53:08.113Z,87.27
2022-09-11T18:55:34.510Z,87.15
2022-09-11T18:58:01.648Z,87.46
2022-09-11T19:00:28.458Z,87.39
2022-09-11T19:02:56.420Z,88.30
2022-09-11T19:05:24.990Z,88.11
2022-09-11T19:07:51.649Z,88.01
2022-09-11T19:10:18.348Z,87.84
2022-09-11T19:12:47.979Z,87.92
2022-09-11T19:15:14.397Z,88.73
2022-09-11T19:17:40.811Z,88.25
2022-09-11T19:20:09.640Z,88.40
2022-09-11T19:22:36.016Z,88.31
2022-09-11T19:25:02.445Z,88.43
2022-09-11T19:27:31.541Z,88.07
2022-09-11T19:29:58.232Z,88.03
2022-09-11T19:32:25.134Z,87.88
2022-09-11T19:34:51.625Z,88.13
2022-09-11T19:37:20.024Z,87.96
2022-09-11T19:39:48.305Z,87.75
2022-09-11T19:42:14.686Z,87.97
2022-09-11T19:44:41.202Z,87.99
2022-09-11T19:47:07.935Z,88.50
2022-09-11T19:49:34.317Z,88.15
2022-09-11T19:52:01.555Z,88.50
2022-09-11T19:54:30.117Z,88.48
2022-09-11T19:56:56.609Z,88.48
2022-09-11T19:59:23.102Z,87.81
2022-09-11T20:01:49.492Z,88.30
2022-09-11T20:04:17.561Z,88.17
2022-09-11T20:12:16.360Z,88.52
2022-09-11T20:14:42.964Z,88.15
2022-09-11T20:17:10.135Z,87.88
2022-09-11T20:19:36.584Z,87.85
2022-09-11T20:22:03.012Z,87.78
2022-09-11T20:24:29.377Z,87.89
2022-09-11T20:26:55.757Z,87.82
2022-09-11T20:29:22.082Z,88.39
2022-09-11T20:31:50.985Z,88.52
2022-09-11T20:34:18.865Z,88.40
2022-09-11T20:36:45.797Z,88.71
2022-09-11T20:39:16.130Z,88.36
2022-09-11T20:41:42.988Z,87.77
2022-09-11T20:44:09.897Z,88.34
2022-09-11T20:46:36.441Z,89.48
2022-09-11T20:49:04.590Z,89.14
2022-09-11T20:51:32.921Z,89.04
2022-09-11T20:54:00.574Z,89.51
2022-09-11T20:56:27.956Z,89.35
2022-09-11T20:58:54.322Z,90.08
2022-09-11T21:01:22.788Z,89.02
2022-09-11T21:03:54.744Z,89.43
2022-09-11T21:06:26.126Z,89.50
2022-09-11T21:08:55.271Z,89.41
2022-09-11T21:11:21.980Z,89.24
2022-09-11T21:13:48.546Z,88.98
2022-09-11T21:16:16.005Z,88.47
2022-09-11T21:18:54.510Z,89.08
2022-09-11T21:21:22.552Z,90.30
2022-09-11T21:23:53.171Z,90.64
2022-09-11T21:26:19.574Z,90.50
2022-09-11T21:28:45.999Z,90.25
2022-09-11T21:31:12.656Z,90.61
2022-09-11T21:33:39.705Z,90.17
2022-09-11T21:36:07.218Z,90.25
2022-09-11T21:38:33.716Z,90.37
2022-09-11T21:41:02.416Z,90.14
2022-09-11T21:43:29.110Z,89.91
2022-09-11T21:45:56.120Z,90.66
2022-09-11T21:48:23.331Z,90.44
2022-09-11T21:50:50.190Z,90.58
2022-09-11T21:53:17.063Z,90.08
2022-09-11T21:55:45.420Z,89.07
2022-09-11T21:58:15.975Z,89.45
2022-09-11T22:00:43.455Z,89.42
2022-09-11T22:03:16.617Z,90.11
2022-09-11T22:05:44.990Z,89.55
2022-09-11T22:08:13.418Z,89.86
2022-09-11T22:10:48.379Z,89.74
2022-09-11T22:13:15.711Z,90.48
2022-09-11T22:15:43.853Z,90.07
2022-09-11T22:18:10.465Z,89.86
2022-09-11T22:20:37.714Z,90.31
2022-09-11T22:23:04.969Z,90.52
2022-09-11T22:25:32.792Z,90.71
2022-09-11T22:27:59.335Z,93.07
2022-09-11T22:30:27.902Z,93.56
2022-09-11T22:32:54.581Z,92.70
2022-09-11T22:35:20.947Z,92.91
2022-09-11T22:37:47.293Z,92.91
2022-09-11T22:40:13.673Z,93.38
2022-09-11T22:42:40.088Z,92.88
2022-09-11T22:45:07.868Z,92.49
2022-09-11T22:47:35.136Z,92.73
2022-09-11T22:50:01.845Z,92.29
2022-09-11T22:52:29.076Z,91.92
2022-09-11T22:54:55.430Z,92.35
2022-09-11T22:57:21.915Z,92.58
2022-09-11T22:59:48.942Z,92.31
2022-09-11T23:02:15.480Z,92.17
2022-09-11T23:05:04.789Z,92.47
2022-09-11T23:07:31.142Z,92.72
2022-09-11T23:09:57.613Z,92.50
2022-09-11T23:12:24.534Z,92.24
2022-09-11T23:14:52.542Z,92.31
2022-09-11T23:17:18.874Z,92.51
2022-09-11T23:19:45.315Z,92.56
2022-09-11T23:22:11.714Z,92.58
2022-09-11T23:24:38.055Z,92.11
2022-09-11T23:27:04.580Z,91.94
2022-09-11T23:29:30.966Z,92.21
2022-09-11T23:31:57.529Z,92.49
2022-09-11T23:34:23.911Z,91.83
2022-09-11T23:36:50.379Z,90.85
2022-09-11T23:39:16.746Z,90.75
2022-09-11T23:41:43.110Z,90.86
2022-09-11T23:44:10.078Z,91.93
2022-09-11T23:46:36.471Z,91.07
2022-09-11T23:49:02.896Z,90.66
2022-09-11T23:51:29.256Z,90.13
2022-09-11T23:53:55.584Z,89.73
2022-09-11T23:56:22.444Z,90.30
2022-09-11T23:58:49.399Z,90.50
